createdAt,value
2019-04-07T00:00:08.957Z,47.80
2019-04-07T00:02:37.664Z,48.42
2019-04-07T00:05:11.918Z,49.90
2019-04-07T00:07:37.887Z,48.58
2019-04-07T00:10:11.038Z,48.20
2019-04-07T00:12:39.580Z,48.30
2019-04-07T00:15:08.804Z,48.68
2019-04-07T00:17:37.527Z,49.55
2019-04-07T00:20:07.302Z,48.73
2019-04-07T00:22:35.950Z,49.83
2019-04-07T00:25:05.295Z,50.70
2019-04-07T00:27:36.881Z,50.98
2019-04-07T00:30:06.930Z,50.17
2019-04-07T00:32:35.565Z,50.63
2019-04-07T00:35:05.984Z,50.20
2019-04-07T00:37:34.553Z,50.03
2019-04-07T00:40:03.305Z,49.13
2019-04-07T00:42:32.575Z,49.85
2019-04-07T00:45:01.026Z,49.00
2019-04-07T00:47:29.526Z,50.70
2019-04-07T00:49:58.724Z,50.05
2019-04-07T00:52:28.387Z,49.98
2019-04-07T00:54:57.647Z,50.52
2019-04-07T00:57:26.399Z,49.48
2019-04-07T00:59:55.145Z,49.65
2019-04-07T01:02:24.416Z,49.42
2019-04-07T01:04:53.047Z,49.18
2019-04-07T01:07:21.571Z,49.15
2019-04-07T01:09:50.667Z,49.03
2019-04-07T01:12:19.358Z,49.27
2019-04-07T01:14:47.910Z,51.40
2019-04-07T01:17:16.458Z,49.93
2019-04-07T01:19:45.478Z,52.45
2019-04-07T01:22:14.416Z,52.10
2019-04-07T01:24:43.164Z,52.00
2019-04-07T01:27:11.647Z,51.18
2019-04-07T01:29:40.078Z,52.00
2019-04-07T01:32:08.797Z,52.60
2019-04-07T01:34:37.322Z,51.35
2019-04-07T01:37:05.781Z,53.00
2019-04-07T01:39:34.873Z,51.98
2019-04-07T01:42:05.793Z,52.20
2019-04-07T01:44:39.776Z,53.80
2019-04-07T01:47:21.982Z,53.65
2019-04-07T01:49:54.595Z,53.68
2019-04-07T01:52:41.447Z,52.83
2019-04-07T01:55:28.440Z,53.78
2019-04-07T01:57:58.592Z,52.60
2019-04-07T02:00:37.169Z,51.42
2019-04-07T02:03:07.523Z,52.33
2019-04-07T02:05:37.650Z,53.30
2019-04-07T02:08:23.257Z,53.10
2019-04-07T02:11:08.690Z,52.60
2019-04-07T02:13:55.815Z,52.73
2019-04-07T02:16:43.195Z,52.43
2019-04-07T02:19:16.216Z,53.35
2019-04-07T02:21:49.349Z,54.20
2019-04-07T02:24:20.226Z,54.93
2019-04-07T02:26:59.663Z,52.35
2019-04-07T02:29:33.454Z,55.65
2019-04-07T02:32:19.786Z,56.13
2019-04-07T02:34:55.446Z,55.12
2019-04-07T02:37:38.626Z,53.15
2019-04-07T02:40:26.658Z,54.75
2019-04-07T02:42:57.557Z,53.80
2019-04-07T02:45:30.574Z,54.63
2019-04-07T02:48:03.400Z,53.87
2019-04-07T02:50:36.708Z,57.40
2019-04-07T02:53:09.602Z,55.85
2019-04-07T02:55:55.066Z,55.03
2019-04-07T02:58:25.513Z,53.92
2019-04-07T03:01:11.819Z,55.08
2019-04-07T03:03:42.698Z,55.73
2019-04-07T03:06:32.499Z,53.42
2019-04-07T03:08:47.544Z,54.30
2019-04-07T03:11:21.249Z,54.53
2019-04-07T03:13:52.576Z,56.48
2019-04-07T03:16:25.129Z,56.88
2019-04-07T03:19:04.564Z,55.08
2019-04-07T03:21:46.858Z,57.90
2019-04-07T03:24:32.462Z,57.03
2019-04-07T03:27:22.146Z,56.90
2019-04-07T03:29:53.295Z,56.33
2019-04-07T03:32:35.475Z,55.40
2019-04-07T03:35:13.294Z,54.13
2019-04-07T03:37:57.188Z,55.23
2019-04-07T03:40:44.236Z,55.88
2019-04-07T03:43:17.723Z,54.88
2019-04-07T03:45:53.952Z,56.68
2019-04-07T03:48:24.665Z,59.93
2019-04-07T03:51:06.782Z,57.43
2019-04-07T03:53:54.018Z,58.78
2019-04-07T03:56:30.663Z,60.40
2019-04-07T03:59:07.421Z,59.67
2019-04-07T04:01:43.901Z,58.83
2019-04-07T04:04:13.988Z,59.85
2019-04-07T04:06:56.745Z,59.90
2019-04-07T04:09:27.064Z,60.00
2019-04-07T04:12:12.171Z,57.73
2019-04-07T04:14:43.223Z,58.45
2019-04-07T04:17:12.923Z,59.38
2019-04-07T04:19:41.532Z,59.00
2019-04-07T04:22:09.986Z,57.88
2019-04-07T04:24:38.438Z,58.87
2019-04-07T04:27:06.892Z,57.15
2019-04-07T04:29:35.316Z,59.15
2019-04-07T04:32:03.837Z,59.85
2019-04-07T04:34:32.917Z,60.28
2019-04-07T04:37:01.771Z,56.92
2019-04-07T04:39:31.381Z,59.85
2019-04-07T04:42:00.011Z,60.25
2019-04-07T04:44:29.578Z,63.08
2019-04-07T04:46:58.407Z,60.52
2019-04-07T04:49:27.117Z,59.00
2019-04-07T04:51:57.314Z,59.35
2019-04-07T04:54:26.102Z,60.70
2019-04-07T04:56:54.570Z,59.80
2019-04-07T04:59:23.013Z,60.90
2019-04-07T05:01:51.443Z,60.65
2019-04-07T05:04:20.777Z,58.98
2019-04-07T05:06:49.321Z,60.12
2019-04-07T05:09:18.047Z,60.20
2019-04-07T05:11:47.166Z,60.33
2019-04-07T05:14:16.425Z,61.05
2019-04-07T05:16:44.989Z,60.50
2019-04-07T05:19:18.212Z,60.43
2019-04-07T05:21:47.032Z,59.45
2019-04-07T05:24:15.826Z,61.33
2019-04-07T05:26:54.293Z,61.40
2019-04-07T05:29:27.168Z,60.03
2019-04-07T05:31:57.459Z,62.30
2019-04-07T05:34:25.874Z,64.10
2019-04-07T05:36:56.414Z,63.42
2019-04-07T05:39:30.867Z,63.17
2019-04-07T05:42:19.998Z,63.80
2019-04-07T05:44:49.307Z,62.43
2019-04-07T05:47:18.011Z,62.05
2019-04-07T05:49:46.562Z,63.60
2019-04-07T05:52:16.199Z,61.70
2019-04-07T05:54:49.542Z,62.00
2019-04-07T05:57:17.107Z,66.42
2019-04-07T05:59:46.022Z,65.52
2019-04-07T06:02:14.687Z,66.47
2019-04-07T06:04:46.845Z,63.98
2019-04-07T06:07:14.871Z,65.05
2019-04-07T06:09:43.769Z,65.95
2019-04-07T06:12:12.821Z,66.87
2019-04-07T06:14:46.532Z,66.37
2019-04-07T06:17:15.219Z,63.60
2019-04-07T06:19:44.392Z,65.30
2019-04-07T06:22:13.106Z,64.12
2019-04-07T06:24:41.610Z,64.50
2019-04-07T06:27:10.038Z,64.55
2019-04-07T06:29:38.956Z,64.72
2019-04-07T06:32:10.094Z,62.40
2019-04-07T06:34:41.180Z,63.55
2019-04-07T06:37:08.355Z,65.92
2019-04-07T06:39:37.341Z,65.95
2019-04-07T06:42:05.991Z,65.08
2019-04-07T06:44:34.484Z,63.28
2019-04-07T06:47:20.259Z,62.35
2019-04-07T06:49:53.284Z,61.68
2019-04-07T06:52:23.862Z,62.25
2019-04-07T06:54:57.131Z,61.88
2019-04-07T06:57:28.245Z,58.33
2019-04-07T06:59:58.874Z,59.35
2019-04-07T07:02:30.217Z,59.60
2019-04-07T07:05:06.793Z,61.02
2019-04-07T07:07:42.620Z,58.70
2019-04-07T07:10:12.885Z,58.60
2019-04-07T07:13:01.931Z,59.45
2019-04-07T07:15:34.505Z,58.40
2019-04-07T07:18:03.571Z,55.83
2019-04-07T07:20:46.161Z,53.25
2019-04-07T07:23:16.922Z,52.23
2019-04-07T07:25:45.514Z,52.80
2019-04-07T07:28:13.989Z,50.92
2019-04-07T07:30:42.690Z,49.67
2019-04-07T07:33:11.365Z,49.00
2019-04-07T07:35:39.895Z,48.83
2019-04-07T07:38:09.215Z,46.75
2019-04-07T07:40:38.528Z,48.65
2019-04-07T07:43:07.067Z,47.17
2019-04-07T07:45:36.193Z,47.13
2019-04-07T07:48:05.423Z,47.13
2019-04-07T07:50:36.784Z,47.00
2019-04-07T07:53:04.729Z,48.30
2019-04-07T07:55:35.977Z,46.20
2019-04-07T07:58:04.059Z,47.27
2019-04-07T08:00:34.509Z,47.35
2019-04-07T08:03:03.609Z,48.52
2019-04-07T08:05:33.461Z,47.35
2019-04-07T08:08:02.039Z,45.63
2019-04-07T08:10:31.837Z,46.33
2019-04-07T08:13:02.567Z,46.35
2019-04-07T08:15:32.237Z,45.05
2019-04-07T08:18:04.780Z,44.03
2019-04-07T08:20:31.756Z,43.38
2019-04-07T08:23:01.108Z,43.63
2019-04-07T08:25:30.230Z,43.73
2019-04-07T08:28:02.192Z,43.90
2019-04-07T08:30:29.057Z,43.90
2019-04-07T08:32:59.521Z,41.58
2019-04-07T08:35:27.669Z,41.88
2019-04-07T08:37:56.770Z,43.17
2019-04-07T08:40:25.358Z,43.35
2019-04-07T08:42:53.833Z,41.28
2019-04-07T08:45:23.084Z,42.33
2019-04-07T08:47:52.518Z,41.70
2019-04-07T08:50:22.661Z,40.88
2019-04-07T08:52:52.135Z,42.60
2019-04-07T08:55:21.836Z,43.38
2019-04-07T08:57:51.626Z,42.43
2019-04-07T09:00:22.056Z,43.13
2019-04-07T09:03:01.844Z,43.35
2019-04-07T09:05:25.993Z,43.17
2019-04-07T09:07:51.791Z,37.93
2019-04-07T09:10:22.359Z,42.83
2019-04-07T09:12:51.002Z,39.55
2019-04-07T09:15:21.198Z,39.85
2019-04-07T09:17:57.744Z,39.53
2019-04-07T09:20:28.173Z,37.98
2019-04-07T09:23:11.349Z,38.53
2019-04-07T09:25:58.378Z,36.63
2019-04-07T09:28:34.496Z,37.85
2019-04-07T09:31:08.415Z,37.78
2019-04-07T09:33:47.930Z,36.95
2019-04-07T09:36:16.931Z,37.00
2019-04-07T09:39:05.656Z,34.55
2019-04-07T09:41:43.145Z,34.65
2019-04-07T09:44:16.211Z,34.30
2019-04-07T09:46:52.153Z,32.05
2019-04-07T09:49:23.774Z,29.42
2019-04-07T09:52:13.883Z,32.63
2019-04-07T09:55:00.042Z,29.85
2019-04-07T09:57:42.208Z,28.75
2019-04-07T10:00:14.322Z,28.75
2019-04-07T10:02:47.122Z,26.45
2019-04-07T10:05:30.859Z,24.80
2019-04-07T10:08:01.130Z,22.75
2019-04-07T10:10:34.948Z,22.60
2019-04-07T10:13:11.148Z,21.48
2019-04-07T10:15:47.488Z,19.67
2019-04-07T10:18:17.921Z,19.20
2019-04-07T10:20:51.492Z,19.40
2019-04-07T10:23:21.976Z,19.45
2019-04-07T10:25:58.457Z,18.15
2019-04-07T10:28:44.156Z,19.05
2019-04-07T10:31:20.903Z,18.50
2019-04-07T10:34:08.146Z,18.50
2019-04-07T10:36:42.352Z,17.52
2019-04-07T10:39:27.569Z,17.70
2019-04-07T10:42:12.680Z,18.10
2019-04-07T10:44:43.407Z,17.40
2019-04-07T10:47:25.813Z,16.80
2019-04-07T10:50:05.176Z,17.27
2019-04-07T10:52:36.074Z,16.90
2019-04-07T10:55:25.359Z,15.72
2019-04-07T10:58:14.030Z,15.93
2019-04-07T11:00:46.331Z,17.15
2019-04-07T11:03:32.932Z,16.50
2019-04-07T11:06:05.592Z,15.72
2019-04-07T11:08:35.688Z,15.00
2019-04-07T11:11:14.995Z,16.75
2019-04-07T11:13:51.620Z,16.57
2019-04-07T11:16:24.850Z,16.23
2019-04-07T11:18:58.555Z,16.45
2019-04-07T11:21:34.942Z,16.87
2019-04-07T11:24:08.930Z,17.45
2019-04-07T11:26:48.575Z,17.30
2019-04-07T11:29:28.283Z,17.45
2019-04-07T11:32:10.395Z,16.40
2019-04-07T11:34:41.422Z,16.67
2019-04-07T11:37:12.883Z,16.70
2019-04-07T11:39:46.387Z,17.42
2019-04-07T11:42:25.559Z,15.53
2019-04-07T11:45:10.297Z,16.32
2019-04-07T11:48:03.436Z,15.78
2019-04-07T11:50:48.932Z,15.28
2019-04-07T11:53:25.238Z,14.13
2019-04-07T11:56:11.522Z,15.10
2019-04-07T11:58:41.897Z,14.95
2019-04-07T12:01:20.996Z,15.18
2019-04-07T12:03:55.007Z,14.73
2019-04-07T12:06:26.749Z,14.85
2019-04-07T12:09:00.280Z,15.13
2019-04-07T12:11:34.300Z,15.63
2019-04-07T12:14:07.441Z,15.98
2019-04-07T12:16:40.213Z,17.92
2019-04-07T12:19:30.687Z,15.70
2019-04-07T12:22:02.326Z,15.10
2019-04-07T12:24:32.637Z,14.30
2019-04-07T12:27:35.723Z,14.90
2019-04-07T12:30:10.703Z,14.93
2019-04-07T12:32:57.583Z,15.80
2019-04-07T12:35:36.580Z,14.83
2019-04-07T12:38:10.060Z,15.60
2019-04-07T12:40:38.885Z,16.15
2019-04-07T12:43:12.113Z,16.10
2019-04-07T12:45:57.114Z,16.17
2019-04-07T12:48:33.166Z,15.45
2019-04-07T12:51:19.861Z,15.13
2019-04-07T12:54:01.959Z,15.08
2019-04-07T12:56:44.638Z,15.00
2019-04-07T12:59:16.899Z,15.60
2019-04-07T13:02:05.996Z,15.93
2019-04-07T13:04:40.885Z,15.32
2019-04-07T13:07:28.400Z,15.50
2019-04-07T13:10:02.887Z,14.87
2019-04-07T13:12:32.218Z,15.28
2019-04-07T13:15:02.463Z,16.05
2019-04-07T13:17:44.710Z,16.05
2019-04-07T13:20:27.131Z,15.43
2019-04-07T13:23:15.476Z,15.93
2019-04-07T13:25:45.583Z,15.93
2019-04-07T13:28:24.630Z,15.83
2019-04-07T13:31:11.303Z,16.15
2019-04-07T13:34:01.198Z,15.78
2019-04-07T13:36:30.072Z,15.13
2019-04-07T13:39:00.868Z,16.17
2019-04-07T13:41:42.594Z,15.63
2019-04-07T13:44:08.846Z,15.45
2019-04-07T13:46:40.016Z,14.55
2019-04-07T13:51:49.339Z,15.20
2019-04-07T13:54:37.278Z,13.40
2019-04-07T13:57:25.612Z,13.85
2019-04-07T14:00:00.529Z,14.43
2019-04-07T14:02:39.987Z,15.00
2019-04-07T14:05:27.012Z,13.55
2019-04-07T14:08:12.615Z,15.08
2019-04-07T14:10:48.334Z,13.68
2019-04-07T14:13:36.830Z,13.03
2019-04-07T14:16:05.444Z,13.85
2019-04-07T14:18:54.578Z,13.08
2019-04-07T14:21:24.722Z,13.45
2019-04-07T14:23:58.166Z,13.32
2019-04-07T14:26:28.413Z,13.30
2019-04-07T14:29:15.272Z,13.13
2019-04-07T14:31:45.537Z,14.73
2019-04-07T14:34:32.487Z,14.07
2019-04-07T14:37:13.394Z,14.65
2019-04-07T14:39:46.602Z,14.35
2019-04-07T14:42:26.358Z,14.03
2019-04-07T14:45:00.174Z,13.53
2019-04-07T14:47:42.523Z,13.90
2019-04-07T14:50:25.248Z,14.25
2019-04-07T14:53:01.785Z,13.70
2019-04-07T14:55:32.536Z,13.60
2019-04-07T14:58:02.982Z,13.68
2019-04-07T15:00:33.145Z,13.45
2019-04-07T15:03:02.053Z,13.88
2019-04-07T15:05:32.805Z,13.45
2019-04-07T15:08:12.215Z,13.53
2019-04-07T15:13:32.549Z,12.90
2019-04-07T15:16:01.004Z,12.20
2019-04-07T15:18:29.770Z,12.63
2019-04-07T15:20:59.292Z,13.25
2019-04-07T15:23:30.968Z,12.37
2019-04-07T15:25:59.056Z,13.35
2019-04-07T15:28:30.663Z,14.45
2019-04-07T15:30:57.751Z,15.70
2019-04-07T15:33:26.200Z,15.03
2019-04-07T15:35:54.671Z,15.90
2019-04-07T15:38:26.998Z,16.67
2019-04-07T15:40:53.448Z,15.05
2019-04-07T15:43:22.360Z,17.12
2019-04-07T15:45:50.932Z,16.35
2019-04-07T15:48:21.454Z,15.80
2019-04-07T15:50:49.564Z,15.68
2019-04-07T15:53:18.748Z,16.30
2019-04-07T15:55:53.400Z,16.15
2019-04-07T15:58:17.597Z,16.48
2019-04-07T16:00:46.216Z,16.80
2019-04-07T16:03:16.987Z,14.87
2019-04-07T16:05:46.498Z,15.55
2019-04-07T16:08:16.712Z,15.23
2019-04-07T16:10:45.381Z,14.50
2019-04-07T16:13:13.900Z,15.30
2019-04-07T16:15:44.628Z,15.43
2019-04-07T16:18:12.688Z,15.00
2019-04-07T16:20:41.675Z,14.75
2019-04-07T16:23:10.516Z,14.65
2019-04-07T16:25:40.437Z,14.93
2019-04-07T16:28:12.865Z,15.50
2019-04-07T16:30:39.504Z,14.70
2019-04-07T16:33:08.798Z,15.43
2019-04-07T16:35:37.315Z,15.55
2019-04-07T16:38:05.833Z,16.30
2019-04-07T16:40:34.993Z,16.75
2019-04-07T16:43:11.639Z,16.27
2019-04-07T16:45:33.987Z,15.70
2019-04-07T16:48:04.600Z,15.60
2019-04-07T16:50:32.729Z,15.88
2019-04-07T16:53:04.470Z,15.00
2019-04-07T16:55:34.930Z,15.98
2019-04-07T16:58:03.778Z,15.45
2019-04-07T17:00:32.466Z,15.00
2019-04-07T17:03:01.306Z,15.20
2019-04-07T17:05:30.231Z,15.15
2019-04-07T17:07:59.499Z,15.53
2019-04-07T17:10:31.578Z,14.70
2019-04-07T17:13:00.444Z,14.80
2019-04-07T17:15:29.649Z,15.70
2019-04-07T17:17:58.778Z,15.20
2019-04-07T17:20:28.522Z,17.35
2019-04-07T17:22:58.268Z,16.40
2019-04-07T17:25:26.922Z,16.90
2019-04-07T17:27:58.664Z,15.63
2019-04-07T17:30:26.266Z,15.10
2019-04-07T17:32:56.584Z,16.57
2019-04-07T17:35:25.096Z,17.07
2019-04-07T17:37:56.579Z,18.37
2019-04-07T17:40:32.145Z,17.25
2019-04-07T17:43:02.976Z,17.57
2019-04-07T17:45:33.354Z,18.30
2019-04-07T17:48:06.121Z,17.42
2019-04-07T17:50:38.902Z,17.55
2019-04-07T17:53:24.199Z,17.00
2019-04-07T17:56:10.926Z,17.40
2019-04-07T17:58:41.050Z,16.42
2019-04-07T18:01:29.157Z,17.70
2019-04-07T18:03:59.473Z,18.73
2019-04-07T18:06:32.350Z,18.80
2019-04-07T18:09:22.127Z,17.73
2019-04-07T18:12:12.839Z,17.62
2019-04-07T18:14:56.736Z,18.30
2019-04-07T18:17:23.990Z,17.95
2019-04-07T18:20:05.213Z,18.12
2019-04-07T18:22:51.678Z,17.82
2019-04-07T18:25:36.662Z,18.15
2019-04-07T18:28:07.074Z,18.00
2019-04-07T18:30:53.827Z,18.17
2019-04-07T18:33:29.529Z,18.23
2019-04-07T18:36:09.148Z,18.30
2019-04-07T18:38:42.718Z,18.75
2019-04-07T18:41:14.581Z,18.37
2019-04-07T18:43:57.855Z,18.55
2019-04-07T18:46:25.553Z,19.37
2019-04-07T18:52:05.727Z,18.42
2019-04-07T18:54:38.959Z,18.57
2019-04-07T18:57:27.173Z,19.55
2019-04-07T19:00:06.257Z,18.40
2019-04-07T19:02:53.403Z,19.17
2019-04-07T19:05:26.407Z,18.27
2019-04-07T19:08:07.932Z,19.05
2019-04-07T19:11:06.228Z,19.15
2019-04-07T19:13:32.480Z,18.90
2019-04-07T19:16:02.759Z,19.25
2019-04-07T19:18:40.901Z,19.90
2019-04-07T19:21:13.999Z,19.50
2019-04-07T19:24:00.065Z,18.98
2019-04-07T19:26:31.568Z,19.98
2019-04-07T19:29:01.723Z,19.40
2019-04-07T19:31:43.882Z,18.75
2019-04-07T19:34:23.696Z,18.73
2019-04-07T19:36:59.784Z,19.60
2019-04-07T19:39:46.810Z,18.57
2019-04-07T19:42:19.811Z,18.85
2019-04-07T19:45:04.359Z,18.20
2019-04-07T19:47:34.771Z,17.67
2019-04-07T19:50:15.520Z,18.00
2019-04-07T19:52:46.400Z,18.60
2019-04-07T19:55:16.592Z,18.87
2019-04-07T19:58:00.041Z,19.40
2019-04-07T20:00:30.632Z,19.23
2019-04-07T20:03:17.833Z,18.23
2019-04-07T20:05:50.187Z,19.05
2019-04-07T20:08:32.326Z,18.70
2019-04-07T20:11:07.522Z,19.17
2019-04-07T20:13:46.665Z,19.98
2019-04-07T20:16:19.821Z,19.52
2019-04-07T20:18:54.710Z,18.73
2019-04-07T20:21:35.810Z,19.45
2019-04-07T20:24:03.637Z,18.65
2019-04-07T20:26:50.975Z,19.10
2019-04-07T20:29:19.725Z,20.55
2019-04-07T20:31:56.078Z,20.27
2019-04-07T20:34:26.354Z,19.67
2019-04-07T20:37:08.338Z,19.45
2019-04-07T20:39:44.418Z,19.15
2019-04-07T20:42:16.776Z,19.95
2019-04-07T20:44:58.389Z,19.87
2019-04-07T20:47:18.168Z,19.52
2019-04-07T20:49:51.635Z,19.48
2019-04-07T20:52:26.173Z,19.82
2019-04-07T20:55:14.387Z,20.27
2019-04-07T20:57:54.017Z,20.00
2019-04-07T21:00:38.167Z,20.88
2019-04-07T21:03:20.359Z,19.77
2019-04-07T21:05:46.478Z,20.12
2019-04-07T21:08:20.115Z,21.07
2019-04-07T21:11:04.750Z,21.42
2019-04-07T21:13:34.741Z,21.02
2019-04-07T21:16:04.917Z,21.68
2019-04-07T21:18:41.209Z,21.55
2019-04-07T21:21:12.158Z,21.90
2019-04-07T21:23:48.332Z,21.82
2019-04-07T21:26:18.398Z,20.55
2019-04-07T21:28:54.633Z,21.90
2019-04-07T21:31:34.457Z,21.75
2019-04-07T21:34:20.879Z,21.30
2019-04-07T21:37:03.057Z,21.10
2019-04-07T21:39:33.199Z,21.82
2019-04-07T21:42:18.650Z,22.37
2019-04-07T21:44:59.917Z,21.70
2019-04-07T21:47:34.062Z,23.35
2019-04-07T21:50:13.946Z,22.35
2019-04-07T21:52:45.032Z,23.07
2019-04-07T21:55:27.612Z,22.30
2019-04-07T21:58:00.945Z,24.10
2019-04-07T22:00:43.375Z,23.02
2019-04-07T22:03:15.822Z,23.55
2019-04-07T22:06:03.516Z,22.58
2019-04-07T22:08:34.648Z,23.85
2019-04-07T22:11:03.634Z,23.38
2019-04-07T22:13:34.584Z,24.18
2019-04-07T22:16:04.159Z,24.23
2019-04-07T22:18:32.537Z,24.87
2019-04-07T22:21:01.259Z,23.75
2019-04-07T22:23:31.504Z,25.25
2019-04-07T22:26:00.009Z,26.30
2019-04-07T22:28:30.017Z,24.55
2019-04-07T22:30:59.351Z,25.05
2019-04-07T22:33:30.906Z,25.50
2019-04-07T22:35:58.141Z,25.88
2019-04-07T22:38:27.371Z,25.40
2019-04-07T22:40:56.322Z,24.77
2019-04-07T22:43:25.044Z,25.68
2019-04-07T22:46:04.179Z,24.67
2019-04-07T22:48:26.586Z,26.02
2019-04-07T22:50:53.936Z,25.52
2019-04-07T22:53:25.995Z,26.07
2019-04-07T22:55:52.768Z,24.65
2019-04-07T22:58:22.156Z,25.43
2019-04-07T23:00:50.747Z,26.65
2019-04-07T23:03:19.720Z,25.48
2019-04-07T23:05:49.147Z,26.20
2019-04-07T23:08:17.677Z,26.48
2019-04-07T23:10:46.102Z,26.10
2019-04-07T23:13:15.421Z,26.77
2019-04-07T23:15:45.982Z,26.33
2019-04-07T23:18:14.278Z,26.40
2019-04-07T23:20:42.742Z,26.35
2019-04-07T23:23:11.256Z,26.70
2019-04-07T23:25:39.704Z,26.55
2019-04-07T23:28:08.224Z,26.75
2019-04-07T23:30:36.658Z,27.85
2019-04-07T23:33:06.161Z,26.40
2019-04-07T23:35:35.103Z,27.02
2019-04-07T23:38:03.835Z,26.95
2019-04-07T23:40:32.282Z,26.62
2019-04-07T23:43:00.776Z,25.75
2019-04-07T23:45:29.232Z,26.62
2019-04-07T23:47:57.686Z,26.57
2019-04-07T23:50:26.131Z,26.93
2019-04-07T23:52:54.820Z,26.30
2019-04-07T23:55:24.004Z,28.32
2019-04-07T23:57:52.664Z,27.98
